createdAt,value
2022-10-15T00:01:26.154Z,60.14
2022-10-15T00:03:53.944Z,59.71
2022-10-15T00:06:21.764Z,60.05
2022-10-15T00:08:49.412Z,60.11
2022-10-15T00:11:22.512Z,60.27
2022-10-15T00:13:50.750Z,60.27
2022-10-15T00:16:20.594Z,60.59
2022-10-15T00:18:48.630Z,60.07
2022-10-15T00:21:18.007Z,60.26
2022-10-15T00:23:46.680Z,60.11
2022-10-15T00:26:16.910Z,60.02
2022-10-15T00:28:44.358Z,60.10
2022-10-15T00:31:14.215Z,59.67
2022-10-15T00:33:41.860Z,60.00
2022-10-15T00:36:13.104Z,59.90
2022-10-15T00:38:41.053Z,60.07
2022-10-15T00:41:13.057Z,60.09
2022-10-15T00:43:43.352Z,60.21
2022-10-15T00:46:40.464Z,60.08
2022-10-15T00:49:24.928Z,59.96
2022-10-15T00:52:08.382Z,60.09
2022-10-15T00:54:53.511Z,60.23
2022-10-15T00:57:20.823Z,59.95
2022-10-15T00:59:51.169Z,59.68
2022-10-15T01:02:19.656Z,59.69
2022-10-15T01:04:47.898Z,59.96
2022-10-15T01:09:44.768Z,60.07
2022-10-15T01:12:20.434Z,60.10
2022-10-15T01:14:59.608Z,60.14
2022-10-15T01:17:47.683Z,59.83
2022-10-15T01:20:38.127Z,59.73
2022-10-15T01:23:19.323Z,60.02
2022-10-15T01:26:09.024Z,60.25
2022-10-15T01:28:43.242Z,60.17
2022-10-15T01:31:37.145Z,59.99
2022-10-15T01:34:09.255Z,60.51
2022-10-15T01:36:49.873Z,60.12
2022-10-15T01:39:33.569Z,60.07
2022-10-15T01:42:04.177Z,60.20
2022-10-15T01:44:34.954Z,60.15
2022-10-15T01:47:19.801Z,60.27
2022-10-15T01:49:48.940Z,60.11
2022-10-15T01:52:23.838Z,60.47
2022-10-15T01:54:52.995Z,60.22
2022-10-15T01:57:22.656Z,60.19
2022-10-15T01:59:52.316Z,60.22
2022-10-15T02:02:21.271Z,60.07
2022-10-15T02:04:49.045Z,60.32
2022-10-15T02:07:27.466Z,60.27
2022-10-15T02:10:02.288Z,60.24
2022-10-15T02:12:45.231Z,60.03
2022-10-15T02:15:19.247Z,59.93
2022-10-15T02:18:05.708Z,60.04
2022-10-15T02:20:42.099Z,60.10
2022-10-15T02:23:17.270Z,60.23
2022-10-15T02:25:45.511Z,59.83
2022-10-15T02:28:14.669Z,59.77
2022-10-15T02:30:42.568Z,59.94
2022-10-15T02:33:11.663Z,60.19
2022-10-15T02:35:40.799Z,59.86
2022-10-15T02:38:11.001Z,59.97
2022-10-15T02:40:39.489Z,60.16
2022-10-15T02:43:10.022Z,60.13
2022-10-15T02:45:38.197Z,59.97
2022-10-15T02:48:07.528Z,59.98
2022-10-15T02:50:35.085Z,60.01
2022-10-15T02:53:02.678Z,60.47
2022-10-15T02:55:30.352Z,60.29
2022-10-15T02:57:58.444Z,60.23
2022-10-15T03:00:25.871Z,59.74
2022-10-15T03:02:53.808Z,59.85
2022-10-15T03:05:21.334Z,59.57
2022-10-15T03:07:48.832Z,60.01
2022-10-15T03:10:16.512Z,60.24
2022-10-15T03:12:44.102Z,60.55
2022-10-15T03:15:12.033Z,61.43
2022-10-15T03:17:39.969Z,62.14
2022-10-15T03:20:07.579Z,62.93
2022-10-15T03:22:36.087Z,63.88
2022-10-15T03:25:04.592Z,64.04
2022-10-15T03:27:31.988Z,64.02
2022-10-15T03:29:59.435Z,64.33
2022-10-15T03:32:28.038Z,64.09
2022-10-15T03:34:55.436Z,63.20
2022-10-15T03:37:23.413Z,62.30
2022-10-15T03:39:51.362Z,61.81
2022-10-15T03:42:18.798Z,61.37
2022-10-15T03:44:46.716Z,61.18
2022-10-15T03:47:14.531Z,61.29
2022-10-15T03:49:42.368Z,61.35
2022-10-15T03:52:09.808Z,62.06
2022-10-15T03:57:05.490Z,62.04
2022-10-15T03:59:33.174Z,62.12
2022-10-15T04:02:01.173Z,61.67
2022-10-15T04:04:29.008Z,61.84
2022-10-15T04:06:56.854Z,61.70
2022-10-15T04:09:24.802Z,61.53
2022-10-15T04:11:52.403Z,61.46
2022-10-15T04:14:20.219Z,61.05
2022-10-15T04:16:47.566Z,61.01
2022-10-15T04:19:15.981Z,60.38
2022-10-15T04:21:46.599Z,60.40
2022-10-15T04:24:16.187Z,60.29
2022-10-15T04:26:43.844Z,60.09
2022-10-15T04:29:11.295Z,60.24
2022-10-15T04:31:38.720Z,59.92
2022-10-15T04:34:06.456Z,60.09
2022-10-15T04:36:34.129Z,60.17
2022-10-15T04:39:03.771Z,60.05
2022-10-15T04:41:32.933Z,59.70
2022-10-15T04:44:00.749Z,59.78
2022-10-15T04:46:28.161Z,59.98
2022-10-15T04:48:58.827Z,60.29
2022-10-15T04:51:26.890Z,60.12
2022-10-15T04:53:58.270Z,60.20
2022-10-15T04:56:25.910Z,60.30
2022-10-15T04:58:53.310Z,60.25
2022-10-15T05:01:21.289Z,60.21
2022-10-15T05:03:49.453Z,60.34
2022-10-15T05:06:21.621Z,60.67
2022-10-15T05:08:50.191Z,60.54
2022-10-15T05:11:26.196Z,60.39
2022-10-15T05:13:57.985Z,60.45
2022-10-15T05:16:27.878Z,60.66
2022-10-15T05:19:02.070Z,60.79
2022-10-15T05:21:31.469Z,60.79
2022-10-15T05:24:00.965Z,60.88
2022-10-15T05:26:30.268Z,60.89
2022-10-15T05:28:59.097Z,60.61
2022-10-15T05:31:29.302Z,60.49
2022-10-15T05:33:59.283Z,60.67
2022-10-15T05:36:30.728Z,60.56
2022-10-15T05:39:00.263Z,60.96
2022-10-15T05:41:29.722Z,60.60
2022-10-15T05:43:58.513Z,60.85
2022-10-15T05:46:26.105Z,60.72
2022-10-15T05:48:56.124Z,60.67
2022-10-15T05:51:24.574Z,61.09
2022-10-15T05:53:56.754Z,60.92
2022-10-15T05:56:25.152Z,61.23
2022-10-15T05:58:52.759Z,61.26
2022-10-15T06:01:22.506Z,61.18
2022-10-15T06:03:52.082Z,61.40
2022-10-15T06:06:25.003Z,61.83
2022-10-15T06:08:53.916Z,62.11
2022-10-15T06:11:21.672Z,62.28
2022-10-15T06:13:48.971Z,61.54
2022-10-15T06:16:21.080Z,61.81
2022-10-15T06:18:54.150Z,61.79
2022-10-15T06:21:21.755Z,62.04
2022-10-15T06:23:49.063Z,61.86
2022-10-15T06:26:16.385Z,61.36
2022-10-15T06:28:45.715Z,61.13
2022-10-15T06:31:13.065Z,60.49
2022-10-15T06:33:40.349Z,60.80
2022-10-15T06:36:10.735Z,60.49
2022-10-15T06:38:39.386Z,60.00
2022-10-15T06:41:07.593Z,59.76
2022-10-15T06:43:35.785Z,59.36
2022-10-15T06:46:05.165Z,58.48
2022-10-15T06:48:32.826Z,58.41
2022-10-15T06:51:01.270Z,58.58
2022-10-15T06:53:29.342Z,58.79
2022-10-15T06:56:00.751Z,58.51
2022-10-15T06:58:28.913Z,58.24
2022-10-15T07:01:05.981Z,58.18
2022-10-15T07:03:34.448Z,57.94
2022-10-15T07:06:04.481Z,57.63
2022-10-15T07:08:32.216Z,57.07
2022-10-15T07:11:04.422Z,56.16
2022-10-15T07:13:31.998Z,54.79
2022-10-15T07:16:09.741Z,55.35
2022-10-15T07:18:37.644Z,55.30
2022-10-15T07:21:06.864Z,55.61
2022-10-15T07:23:34.419Z,56.66
2022-10-15T07:26:01.765Z,55.31
2022-10-15T07:28:29.533Z,54.86
2022-10-15T07:31:03.924Z,54.60
2022-10-15T07:33:34.292Z,53.96
2022-10-15T07:36:06.716Z,54.00
2022-10-15T07:38:34.891Z,53.93
2022-10-15T07:41:03.459Z,54.19
2022-10-15T07:43:33.411Z,53.37
2022-10-15T07:46:01.600Z,53.21
2022-10-15T07:48:29.309Z,52.88
2022-10-15T07:51:01.628Z,53.04
2022-10-15T07:53:29.266Z,53.10
2022-10-15T07:56:01.262Z,52.62
2022-10-15T07:58:30.959Z,52.24
2022-10-15T08:01:02.588Z,52.28
2022-10-15T08:03:30.708Z,52.74
2022-10-15T08:06:02.157Z,51.20
2022-10-15T08:08:29.916Z,51.54
2022-10-15T08:10:57.571Z,50.95
2022-10-15T08:13:24.991Z,51.35
2022-10-15T08:15:57.797Z,51.13
2022-10-15T08:18:27.551Z,51.09
2022-10-15T08:20:55.017Z,51.02
2022-10-15T08:23:22.307Z,50.99
2022-10-15T08:25:49.753Z,56.28
2022-10-15T08:28:17.352Z,51.42
2022-10-15T08:30:44.687Z,50.42
2022-10-15T08:33:12.546Z,49.78
2022-10-15T08:35:43.859Z,49.57
2022-10-15T08:38:14.757Z,49.58
2022-10-15T08:40:56.640Z,49.17
2022-10-15T08:43:37.857Z,48.60
2022-10-15T08:46:12.566Z,48.84
2022-10-15T08:48:46.295Z,48.94
2022-10-15T08:51:19.154Z,48.58
2022-10-15T08:53:50.807Z,48.59
2022-10-15T08:56:24.857Z,48.16
2022-10-15T08:59:20.871Z,47.48
2022-10-15T09:01:55.059Z,47.72
2022-10-15T09:04:50.525Z,48.28
2022-10-15T09:07:26.659Z,48.60
2022-10-15T09:10:02.189Z,46.80
2022-10-15T09:12:53.716Z,47.79
2022-10-15T09:15:24.045Z,48.12
2022-10-15T09:17:54.987Z,47.21
2022-10-15T09:20:26.752Z,47.31
2022-10-15T09:22:54.585Z,47.05
2022-10-15T09:25:25.586Z,47.68
2022-10-15T09:27:55.236Z,48.26
2022-10-15T09:30:43.382Z,48.75
2022-10-15T09:33:22.366Z,48.66
2022-10-15T09:35:56.651Z,48.33
2022-10-15T09:38:58.053Z,47.95
2022-10-15T09:41:35.931Z,47.34
2022-10-15T09:44:07.249Z,48.06
2022-10-15T09:46:45.504Z,48.12
2022-10-15T09:49:19.090Z,48.21
2022-10-15T09:52:00.411Z,47.82
2022-10-15T09:54:55.361Z,47.28
2022-10-15T09:57:23.781Z,47.22
2022-10-15T10:00:02.348Z,47.80
2022-10-15T10:02:39.537Z,47.09
2022-10-15T10:05:30.222Z,46.97
2022-10-15T10:08:15.810Z,46.84
2022-10-15T10:10:46.060Z,45.74
2022-10-15T10:13:26.074Z,46.51
2022-10-15T10:15:58.354Z,46.97
2022-10-15T10:18:27.048Z,47.41
2022-10-15T10:21:01.614Z,46.74
2022-10-15T10:23:38.038Z,48.06
2022-10-15T10:26:10.632Z,47.55
2022-10-15T10:28:46.518Z,46.75
2022-10-15T10:31:14.147Z,46.11
2022-10-15T10:33:50.510Z,45.75
2022-10-15T10:36:25.984Z,45.95
2022-10-15T10:39:14.659Z,45.83
2022-10-15T10:41:57.991Z,45.15
2022-10-15T10:44:28.180Z,44.32
2022-10-15T10:47:08.022Z,44.05
2022-10-15T10:49:41.224Z,43.87
2022-10-15T10:52:31.852Z,44.22
2022-10-15T10:55:01.056Z,43.82
2022-10-15T10:57:50.779Z,44.24
2022-10-15T11:00:21.531Z,44.27
2022-10-15T11:02:49.876Z,44.55
2022-10-15T11:05:22.655Z,43.71
2022-10-15T11:07:56.525Z,42.95
2022-10-15T11:10:43.863Z,43.56
2022-10-15T11:13:30.404Z,43.63
2022-10-15T11:16:05.887Z,43.93
2022-10-15T11:18:37.794Z,43.75
2022-10-15T11:21:26.553Z,43.85
2022-10-15T11:24:03.622Z,43.73
2022-10-15T11:26:41.632Z,43.57
2022-10-15T11:29:21.254Z,43.41
2022-10-15T11:32:14.554Z,43.54
2022-10-15T11:35:51.548Z,43.53
2022-10-15T11:38:31.238Z,43.38
2022-10-15T11:41:14.854Z,43.41
2022-10-15T11:44:08.257Z,43.55
2022-10-15T11:46:59.058Z,43.72
2022-10-15T11:49:56.381Z,43.92
2022-10-15T11:52:39.100Z,43.77
2022-10-15T11:55:14.543Z,43.57
2022-10-15T11:57:42.699Z,43.31
2022-10-15T12:00:25.219Z,43.15
2022-10-15T12:02:54.339Z,43.13
2022-10-15T12:05:30.026Z,43.19
2022-10-15T12:07:57.872Z,43.04
2022-10-15T12:10:47.895Z,46.25
2022-10-15T12:13:20.922Z,43.23
2022-10-15T12:15:57.704Z,43.23
2022-10-15T12:18:25.217Z,42.73
2022-10-15T12:20:55.307Z,42.76
2022-10-15T12:23:25.784Z,42.56
2022-10-15T12:25:54.748Z,42.59
2022-10-15T12:28:27.506Z,42.35
2022-10-15T12:30:57.399Z,42.35
2022-10-15T12:33:29.808Z,42.01
2022-10-15T12:36:00.093Z,42.19
2022-10-15T12:38:30.948Z,42.14
2022-10-15T12:41:10.062Z,42.28
2022-10-15T12:43:43.991Z,42.10
2022-10-15T12:46:12.046Z,40.83
2022-10-15T12:48:44.704Z,41.32
2022-10-15T12:51:21.252Z,41.18
2022-10-15T12:53:49.736Z,41.12
2022-10-15T12:56:17.174Z,41.29
2022-10-15T12:58:52.032Z,41.19
2022-10-15T13:01:19.514Z,41.48
2022-10-15T13:03:52.780Z,41.91
2022-10-15T13:06:20.471Z,41.05
2022-10-15T13:08:49.161Z,41.66
2022-10-15T13:11:22.502Z,41.40
2022-10-15T13:13:54.249Z,40.98
2022-10-15T13:16:22.533Z,41.31
2022-10-15T13:18:52.360Z,41.54
2022-10-15T13:21:19.673Z,41.44
2022-10-15T13:23:49.641Z,41.56
2022-10-15T13:26:20.492Z,41.79
2022-10-15T13:28:49.964Z,41.60
2022-10-15T13:31:36.843Z,41.59
2022-10-15T13:34:16.085Z,41.48
2022-10-15T13:36:45.293Z,41.54
2022-10-15T13:39:28.645Z,41.41
2022-10-15T13:42:07.438Z,41.21
2022-10-15T13:44:35.456Z,41.00
2022-10-15T13:47:03.656Z,41.34
2022-10-15T13:49:31.229Z,41.64
2022-10-15T13:51:58.562Z,41.82
2022-10-15T13:54:30.149Z,41.99
2022-10-15T13:57:01.993Z,41.77
2022-10-15T13:59:30.203Z,41.79
2022-10-15T14:02:01.223Z,41.93
2022-10-15T14:04:30.731Z,41.80
2022-10-15T14:07:03.931Z,41.96
2022-10-15T14:09:34.188Z,41.95
2022-10-15T14:12:04.187Z,42.07
2022-10-15T14:14:35.375Z,42.05
2022-10-15T14:17:08.891Z,42.16
2022-10-15T14:19:38.608Z,42.46
2022-10-15T14:22:06.355Z,42.55
2022-10-15T14:24:39.007Z,42.59
2022-10-15T14:27:22.004Z,42.87
2022-10-15T14:29:51.728Z,43.28
2022-10-15T14:32:22.481Z,43.39
2022-10-15T14:34:51.568Z,43.77
2022-10-15T14:37:40.223Z,43.90
2022-10-15T14:40:13.277Z,43.96
2022-10-15T14:43:03.956Z,43.93
2022-10-15T14:45:55.424Z,43.88
2022-10-15T14:48:24.467Z,43.53
2022-10-15T14:50:52.032Z,43.76
2022-10-15T14:53:23.776Z,43.66
2022-10-15T14:56:02.815Z,43.80
2022-10-15T14:58:30.440Z,43.79
2022-10-15T15:01:03.238Z,43.99
2022-10-15T15:03:38.616Z,44.04
2022-10-15T15:06:06.841Z,44.17
2022-10-15T15:08:34.177Z,44.06
2022-10-15T15:11:04.437Z,44.14
2022-10-15T15:13:38.505Z,44.17
2022-10-15T15:16:06.448Z,44.08
2022-10-15T15:18:34.093Z,44.11
2022-10-15T15:21:04.450Z,44.40
2022-10-15T15:23:32.118Z,44.51
2022-10-15T15:25:59.980Z,44.63
2022-10-15T15:28:29.285Z,45.01
2022-10-15T15:31:00.352Z,44.86
2022-10-15T15:33:28.388Z,44.85
2022-10-15T15:36:01.319Z,44.89
2022-10-15T15:38:31.276Z,45.26
2022-10-15T15:41:21.532Z,45.05
2022-10-15T15:43:49.410Z,45.69
2022-10-15T15:46:16.837Z,45.96
2022-10-15T15:48:44.151Z,46.20
2022-10-15T15:51:25.724Z,46.51
2022-10-15T15:53:53.578Z,46.74
2022-10-15T15:56:21.575Z,46.90
2022-10-15T15:58:50.282Z,47.26
2022-10-15T16:01:18.785Z,47.43
2022-10-15T16:03:46.906Z,47.64
2022-10-15T16:06:14.378Z,47.69
2022-10-15T16:08:41.673Z,47.87
2022-10-15T16:11:09.279Z,48.12
2022-10-15T16:13:36.545Z,48.22
2022-10-15T16:16:03.927Z,48.61
2022-10-15T16:18:31.470Z,48.78
2022-10-15T16:20:58.965Z,48.85
2022-10-15T16:23:26.365Z,48.89
2022-10-15T16:25:54.935Z,49.11
2022-10-15T16:28:22.311Z,49.44
2022-10-15T16:30:49.822Z,49.65
2022-10-15T16:33:17.756Z,49.64
2022-10-15T16:35:51.228Z,49.38
2022-10-15T16:38:18.779Z,49.53
2022-10-15T16:40:47.339Z,50.49
2022-10-15T16:43:14.687Z,50.31
2022-10-15T16:45:42.294Z,49.90
2022-10-15T16:48:09.629Z,49.76
2022-10-15T16:50:36.894Z,49.54
2022-10-15T16:53:04.547Z,49.37
2022-10-15T16:55:32.340Z,49.40
2022-10-15T16:57:59.644Z,49.44
2022-10-15T17:00:27.347Z,49.42
2022-10-15T17:02:55.115Z,49.47
2022-10-15T17:05:22.938Z,49.42
2022-10-15T17:07:50.715Z,49.27
2022-10-15T17:10:19.124Z,49.23
2022-10-15T17:12:46.885Z,49.18
2022-10-15T17:15:14.485Z,49.20
2022-10-15T17:17:43.374Z,49.19
2022-10-15T17:20:11.519Z,49.18
2022-10-15T17:22:39.137Z,49.08
2022-10-15T17:25:06.640Z,49.06
2022-10-15T17:27:35.620Z,49.24
2022-10-15T17:30:03.496Z,49.10
2022-10-15T17:32:30.924Z,48.80
2022-10-15T17:35:03.488Z,48.83
2022-10-15T17:37:32.004Z,48.75
2022-10-15T17:39:59.921Z,48.68
2022-10-15T17:42:27.626Z,48.68
2022-10-15T17:44:55.506Z,48.47
2022-10-15T17:47:23.314Z,48.58
2022-10-15T17:49:50.860Z,48.75
2022-10-15T17:52:18.459Z,48.60
2022-10-15T17:54:45.958Z,48.96
2022-10-15T17:57:13.465Z,51.36
2022-10-15T17:59:41.010Z,49.86
2022-10-15T18:02:10.199Z,49.02
2022-10-15T18:04:39.823Z,48.66
2022-10-15T18:07:07.853Z,48.56
2022-10-15T18:09:35.990Z,48.60
2022-10-15T18:12:03.715Z,48.63
2022-10-15T18:14:31.933Z,49.10
2022-10-15T18:16:59.747Z,49.12
2022-10-15T18:19:28.101Z,48.45
2022-10-15T18:21:56.312Z,49.22
2022-10-15T18:24:24.188Z,49.23
2022-10-15T18:26:51.997Z,48.78
2022-10-15T18:29:19.747Z,48.96
2022-10-15T18:31:47.431Z,55.39
2022-10-15T18:34:15.011Z,53.46
2022-10-15T18:36:43.557Z,54.00
2022-10-15T18:39:11.703Z,52.89
2022-10-15T18:41:40.372Z,50.62
2022-10-15T18:44:14.677Z,50.65
2022-10-15T18:46:44.750Z,50.48
2022-10-15T18:49:13.367Z,50.12
2022-10-15T18:51:40.784Z,49.84
2022-10-15T18:54:10.857Z,49.60
2022-10-15T18:56:39.068Z,49.37
2022-10-15T18:59:07.159Z,50.12
2022-10-15T19:01:36.408Z,49.46
2022-10-15T19:04:08.926Z,49.22
2022-10-15T19:06:39.225Z,49.27
2022-10-15T19:09:09.068Z,49.16
2022-10-15T19:11:37.450Z,49.09
2022-10-15T19:14:06.676Z,49.09
2022-10-15T19:16:35.320Z,49.10
2022-10-15T19:19:07.382Z,49.13
2022-10-15T19:21:35.612Z,48.92
2022-10-15T19:24:03.021Z,49.56
2022-10-15T19:26:30.815Z,49.54
2022-10-15T19:28:58.647Z,49.64
2022-10-15T19:31:28.303Z,49.85
2022-10-15T19:33:58.062Z,49.70
2022-10-15T19:36:31.931Z,49.34
2022-10-15T19:39:08.176Z,49.24
2022-10-15T19:41:37.606Z,49.39
2022-10-15T19:44:07.850Z,52.97
2022-10-15T19:46:36.040Z,50.26
2022-10-15T19:49:05.076Z,49.54
2022-10-15T19:51:32.917Z,49.23
2022-10-15T19:54:00.463Z,49.27
2022-10-15T19:56:30.568Z,49.22
2022-10-15T19:59:00.564Z,49.45
2022-10-15T20:01:28.689Z,49.47
2022-10-15T20:04:03.371Z,48.89
2022-10-15T20:06:34.541Z,49.34
2022-10-15T20:09:02.199Z,49.28
2022-10-15T20:11:29.827Z,49.61
2022-10-15T20:13:58.991Z,49.47
2022-10-15T20:16:28.823Z,49.65
2022-10-15T20:19:01.428Z,49.89
2022-10-15T20:21:29.183Z,50.54
2022-10-15T20:23:56.481Z,50.99
2022-10-15T20:26:23.949Z,51.14
2022-10-15T20:28:51.571Z,52.38
2022-10-15T20:31:21.309Z,52.20
2022-10-15T20:33:49.306Z,50.52
2022-10-15T20:36:22.603Z,50.39
2022-10-15T20:38:51.446Z,50.55
2022-10-15T20:41:19.337Z,50.47
2022-10-15T20:43:52.773Z,49.80
2022-10-15T20:46:24.339Z,49.67
2022-10-15T20:48:51.730Z,49.09
2022-10-15T20:51:20.653Z,49.04
2022-10-15T20:53:50.040Z,49.00
2022-10-15T20:56:17.558Z,50.15
2022-10-15T20:58:45.393Z,49.92
2022-10-15T21:01:13.387Z,48.92
2022-10-15T21:03:40.750Z,48.77
2022-10-15T21:06:08.069Z,48.76
2022-10-15T21:08:36.240Z,48.65
2022-10-15T21:11:04.942Z,48.58
2022-10-15T21:13:32.292Z,48.45
2022-10-15T21:16:05.582Z,48.67
2022-10-15T21:18:36.871Z,48.59
2022-10-15T21:21:08.843Z,48.76
2022-10-15T21:23:36.982Z,49.12
2022-10-15T21:26:05.838Z,49.07
2022-10-15T21:28:34.004Z,49.09
2022-10-15T21:31:12.403Z,48.73
2022-10-15T21:33:40.320Z,48.54
2022-10-15T21:36:22.311Z,48.80
2022-10-15T21:39:16.418Z,48.91
2022-10-15T21:41:43.711Z,49.16
2022-10-15T21:44:11.252Z,49.15
2022-10-15T21:46:41.992Z,49.12
2022-10-15T21:49:10.108Z,48.76
2022-10-15T21:51:38.178Z,48.73
2022-10-15T21:54:07.199Z,48.98
2022-10-15T21:56:34.515Z,49.21
2022-10-15T21:59:02.267Z,48.89
2022-10-15T22:01:31.956Z,49.49
2022-10-15T22:04:05.475Z,49.26
2022-10-15T22:06:33.655Z,49.49
2022-10-15T22:09:02.210Z,49.40
2022-10-15T22:11:31.994Z,49.39
2022-10-15T22:14:03.454Z,49.56
2022-10-15T22:16:34.180Z,49.40
2022-10-15T22:19:01.812Z,49.51
2022-10-15T22:21:31.742Z,49.55
2022-10-15T22:24:02.672Z,49.80
2022-10-15T22:26:33.276Z,49.88
2022-10-15T22:29:02.261Z,49.67
2022-10-15T22:31:30.081Z,49.67
2022-10-15T22:33:58.492Z,49.77
2022-10-15T22:36:30.512Z,49.64
2022-10-15T22:39:01.779Z,49.86
2022-10-15T22:41:34.130Z,49.86
2022-10-15T22:44:03.076Z,49.95
2022-10-15T22:46:38.011Z,49.90
2022-10-15T22:49:08.548Z,49.72
2022-10-15T22:51:36.103Z,50.45
2022-10-15T22:54:03.502Z,50.03
2022-10-15T22:56:31.377Z,50.18
2022-10-15T22:58:59.321Z,49.85
2022-10-15T23:01:29.204Z,49.70
2022-10-15T23:04:01.914Z,49.75
2022-10-15T23:06:30.531Z,49.87
2022-10-15T23:08:58.686Z,49.68
2022-10-15T23:11:28.615Z,49.86
2022-10-15T23:14:01.616Z,49.78
2022-10-15T23:16:37.351Z,49.99
2022-10-15T23:19:12.623Z,49.83
2022-10-15T23:21:58.106Z,49.85
2022-10-15T23:24:27.215Z,49.77
2022-10-15T23:26:55.188Z,49.76
2022-10-15T23:29:24.581Z,49.92
2022-10-15T23:31:53.066Z,50.00
2022-10-15T23:34:25.583Z,50.12
2022-10-15T23:36:53.740Z,50.09
2022-10-15T23:39:26.382Z,50.12
2022-10-15T23:41:54.872Z,49.98
2022-10-15T23:44:25.628Z,50.40
2022-10-15T23:46:53.203Z,50.50
2022-10-15T23:49:20.810Z,50.55
2022-10-15T23:51:48.362Z,50.58
2022-10-15T23:54:17.753Z,50.88
2022-10-15T23:56:45.923Z,50.59
2022-10-15T23:59:13.974Z,50.71
